Terminal Aerodrome Forecast
Issued by NWS Wilmington, OH

Current Version | Previous Version | Graphics & Text | Print | Product List | Glossary On
Versions: 1 2 3 4 5 6 7 8 9 10 11 12 13 14 15 16 17 18 19 20 21 22 23 24 25
000
FTUS41 KILN 171700
TAFILN
TAF
KILN 171738Z 1718/1818 16006KT 6SM HZ VCSH BKN035 OVC050
     FM180100 16003KT 4SM BR OVC030
     FM180600 10003KT 1SM BR OVC025
     FM181400 04004KT 4SM HZ OVC025=

USA.gov is the U.S. government's official web portal to all federal, state and local government web resources and services.